createdAt,value
2019-05-18T00:01:42.489Z,4.85
2019-05-18T00:04:11.513Z,3.98
2019-05-18T00:06:40.505Z,5.30
2019-05-18T00:09:09.509Z,3.80
2019-05-18T00:11:38.500Z,3.90
2019-05-18T00:14:07.010Z,3.52
2019-05-18T00:16:36.011Z,4.25
2019-05-18T00:19:05.347Z,4.00
2019-05-18T00:21:34.389Z,3.15
2019-05-18T00:24:03.366Z,3.85
2019-05-18T00:26:32.359Z,3.50
2019-05-18T00:29:00.798Z,4.00
2019-05-18T00:31:29.809Z,3.47
2019-05-18T00:33:58.820Z,3.30
2019-05-18T00:36:28.292Z,3.60
2019-05-18T00:38:57.566Z,4.10
2019-05-18T00:41:26.011Z,3.60
2019-05-18T00:43:55.003Z,4.00
2019-05-18T00:46:24.022Z,3.70
2019-05-18T00:48:52.458Z,3.90
2019-05-18T00:51:23.283Z,4.22
2019-05-18T00:53:52.269Z,3.67
2019-05-18T00:56:21.274Z,4.40
2019-05-18T00:58:50.276Z,4.25
2019-05-18T01:01:19.266Z,4.37
2019-05-18T01:03:48.251Z,4.00
2019-05-18T01:06:16.781Z,3.85
2019-05-18T01:08:45.795Z,4.30
2019-05-18T01:11:14.881Z,4.67
2019-05-18T01:13:44.613Z,5.42
2019-05-18T01:16:13.629Z,5.10
2019-05-18T01:18:42.618Z,4.62
2019-05-18T01:21:11.074Z,5.40
2019-05-18T01:23:40.049Z,4.58
2019-05-18T01:26:09.057Z,5.22
2019-05-18T01:28:38.040Z,5.58
2019-05-18T01:31:07.068Z,4.90
2019-05-18T01:33:36.041Z,6.95
2019-05-18T01:36:05.152Z,5.53
2019-05-18T01:38:34.112Z,4.70
2019-05-18T01:41:03.152Z,5.30
2019-05-18T01:43:32.160Z,4.78
2019-05-18T01:46:01.818Z,4.87
2019-05-18T01:48:30.812Z,4.67
2019-05-18T01:50:59.823Z,5.08
2019-05-18T01:53:28.829Z,4.78
2019-05-18T01:55:57.283Z,4.95
2019-05-18T01:58:26.277Z,4.42
2019-05-18T02:00:55.282Z,4.00
2019-05-18T02:03:25.988Z,4.87
2019-05-18T02:05:54.998Z,5.90
2019-05-18T02:08:23.490Z,4.72
2019-05-18T02:10:52.504Z,4.62
2019-05-18T02:13:21.493Z,3.77
2019-05-18T02:15:50.576Z,4.45
2019-05-18T02:18:28.827Z,4.03
2019-05-18T02:20:49.745Z,5.30
2019-05-18T02:23:19.281Z,4.22
2019-05-18T02:25:48.286Z,4.80
2019-05-18T02:28:17.286Z,5.00
2019-05-18T02:30:46.357Z,5.13
2019-05-18T02:33:15.379Z,6.28
2019-05-18T02:35:43.821Z,5.10
2019-05-18T02:38:20.016Z,4.87
2019-05-18T02:40:49.590Z,7.87
2019-05-18T02:43:18.654Z,4.70
2019-05-18T02:45:47.663Z,4.90
2019-05-18T02:48:16.271Z,4.70
2019-05-18T02:50:45.353Z,5.80
2019-05-18T02:53:14.430Z,5.93
2019-05-18T02:55:43.423Z,5.80
2019-05-18T02:58:12.445Z,6.20
2019-05-18T03:00:40.915Z,6.27
2019-05-18T03:03:09.924Z,6.63
2019-05-18T03:05:38.900Z,6.67
2019-05-18T03:08:07.918Z,6.92
2019-05-18T03:10:42.691Z,6.17
2019-05-18T03:13:11.224Z,6.43
2019-05-18T03:15:40.251Z,6.90
2019-05-18T03:18:09.278Z,6.90
2019-05-18T03:20:39.393Z,7.00
2019-05-18T03:23:08.404Z,7.80
2019-05-18T03:25:37.426Z,7.50
2019-05-18T03:28:07.395Z,7.20
2019-05-18T03:30:36.448Z,7.17
2019-05-18T03:33:05.452Z,7.87
2019-05-18T03:35:35.079Z,6.50
2019-05-18T03:38:04.733Z,6.70
2019-05-18T03:40:34.084Z,6.83
2019-05-18T03:43:03.098Z,7.20
2019-05-18T03:45:32.155Z,9.67
2019-05-18T03:48:01.163Z,7.23
2019-05-18T03:50:30.183Z,7.03
2019-05-18T03:52:58.647Z,7.60
2019-05-18T03:55:27.666Z,8.83
2019-05-18T03:57:56.716Z,8.17
2019-05-18T04:00:25.707Z,8.27
2019-05-18T04:02:54.712Z,7.92
2019-05-18T04:05:23.706Z,8.53
2019-05-18T04:07:52.169Z,7.60
2019-05-18T04:10:28.807Z,7.63
2019-05-18T04:12:57.835Z,7.97
2019-05-18T04:15:26.847Z,7.27
2019-05-18T04:17:56.503Z,8.77
2019-05-18T04:20:24.995Z,8.33
2019-05-18T04:22:54.001Z,8.83
2019-05-18T04:25:23.013Z,7.80
2019-05-18T04:27:52.010Z,7.70
2019-05-18T04:30:21.116Z,8.33
2019-05-18T04:32:50.101Z,8.20
2019-05-18T04:35:19.334Z,7.03
2019-05-18T04:37:48.331Z,7.77
2019-05-18T04:40:17.464Z,7.43
2019-05-18T04:42:46.451Z,7.33
2019-05-18T04:45:15.705Z,7.80
2019-05-18T04:47:48.527Z,9.53
2019-05-18T04:50:19.291Z,7.53
2019-05-18T04:52:48.299Z,11.13
2019-05-18T04:55:17.387Z,8.40
2019-05-18T04:57:46.423Z,7.67
2019-05-18T05:00:15.419Z,7.27
2019-05-18T05:02:44.398Z,7.93
2019-05-18T05:05:13.623Z,8.30
2019-05-18T05:07:42.595Z,7.00
2019-05-18T05:10:12.455Z,7.70
2019-05-18T05:12:41.449Z,7.73
2019-05-18T05:15:10.097Z,8.33
2019-05-18T05:17:39.126Z,7.70
2019-05-18T05:20:19.267Z,7.00
2019-05-18T05:22:39.051Z,7.08
2019-05-18T05:25:08.222Z,7.47
2019-05-18T05:27:36.735Z,7.27
2019-05-18T05:30:07.767Z,7.47
2019-05-18T05:32:36.747Z,7.10
2019-05-18T05:35:08.291Z,9.95
2019-05-18T05:37:37.390Z,6.37
2019-05-18T05:40:07.101Z,6.53
2019-05-18T05:42:36.084Z,6.37
2019-05-18T05:45:06.735Z,7.73
2019-05-18T05:47:35.742Z,6.28
2019-05-18T05:50:07.703Z,5.70
2019-05-18T05:52:36.380Z,5.47
2019-05-18T05:55:09.938Z,6.08
2019-05-18T05:57:38.955Z,5.55
2019-05-18T06:00:09.877Z,5.60
2019-05-18T06:02:38.895Z,5.92
2019-05-18T06:05:07.786Z,5.67
2019-05-18T06:07:36.823Z,5.97
2019-05-18T06:10:07.372Z,5.92
2019-05-18T06:12:36.346Z,6.03
2019-05-18T06:15:09.595Z,5.55
2019-05-18T06:17:38.079Z,6.00
2019-05-18T06:20:08.507Z,7.15
2019-05-18T06:22:38.495Z,7.53
2019-05-18T06:25:08.304Z,6.67
2019-05-18T06:27:39.063Z,8.13
2019-05-18T06:30:08.893Z,7.30
2019-05-18T06:32:37.962Z,7.87
2019-05-18T06:35:07.119Z,8.75
2019-05-18T06:37:36.102Z,8.15
2019-05-18T06:40:07.844Z,7.55
2019-05-18T06:42:40.259Z,8.10
2019-05-18T06:45:12.800Z,7.92
2019-05-18T06:47:44.363Z,9.68
2019-05-18T06:50:13.566Z,8.78
2019-05-18T06:52:42.687Z,10.10
2019-05-18T06:55:13.479Z,7.25
2019-05-18T06:57:44.430Z,6.97
2019-05-18T07:00:18.220Z,7.58
2019-05-18T07:02:49.607Z,7.30
2019-05-18T07:05:18.625Z,8.00
2019-05-18T07:07:47.606Z,8.03
2019-05-18T07:10:16.210Z,8.83
2019-05-18T07:12:49.479Z,7.47
2019-05-18T07:15:22.199Z,7.03
2019-05-18T07:17:54.181Z,7.08
2019-05-18T07:20:23.377Z,7.87
2019-05-18T07:22:52.058Z,6.65
2019-05-18T07:25:23.238Z,6.70
2019-05-18T07:27:52.005Z,6.53
2019-05-18T07:30:20.986Z,7.17
2019-05-18T07:32:50.070Z,7.35
2019-05-18T07:35:18.753Z,6.40
2019-05-18T07:37:47.781Z,6.10
2019-05-18T07:40:17.527Z,5.80
2019-05-18T07:42:46.532Z,7.72
2019-05-18T07:45:17.092Z,6.70
2019-05-18T07:47:46.070Z,5.45
2019-05-18T07:50:15.681Z,6.22
2019-05-18T07:52:44.697Z,6.80
2019-05-18T07:55:15.526Z,6.97
2019-05-18T07:57:47.210Z,6.33
2019-05-18T08:00:17.457Z,5.75
2019-05-18T08:02:46.138Z,5.97
2019-05-18T08:05:17.724Z,5.87
2019-05-18T08:07:47.768Z,5.47
2019-05-18T08:10:21.058Z,6.58
2019-05-18T08:12:51.064Z,6.10
2019-05-18T08:15:19.747Z,5.40
2019-05-18T08:17:48.802Z,5.83
2019-05-18T08:20:19.026Z,5.45
2019-05-18T08:22:49.140Z,6.35
2019-05-18T08:25:18.159Z,6.15
2019-05-18T08:27:48.253Z,5.72
2019-05-18T08:30:17.489Z,5.45
2019-05-18T08:32:46.075Z,6.28
2019-05-18T08:35:17.831Z,5.55
2019-05-18T08:37:47.949Z,5.37
2019-05-18T08:40:17.306Z,6.35
2019-05-18T08:42:47.483Z,5.72
2019-05-18T08:45:18.577Z,5.90
2019-05-18T08:47:57.705Z,6.08
2019-05-18T08:50:24.123Z,5.20
2019-05-18T08:52:53.115Z,6.08
2019-05-18T08:55:22.141Z,6.12
2019-05-18T08:57:50.599Z,5.97
2019-05-18T09:00:20.307Z,5.67
2019-05-18T09:02:49.290Z,5.20
2019-05-18T09:05:18.974Z,5.10
2019-05-18T09:07:47.987Z,5.25
2019-05-18T09:10:17.533Z,4.62
2019-05-18T09:12:45.964Z,4.65
2019-05-18T09:15:15.299Z,4.37
2019-05-18T09:17:44.371Z,4.35
2019-05-18T09:20:13.786Z,4.50
2019-05-18T09:22:42.784Z,4.83
2019-05-18T09:25:11.462Z,4.15
2019-05-18T09:27:40.505Z,4.17
2019-05-18T09:30:10.964Z,4.87
2019-05-18T09:32:40.091Z,4.33
2019-05-18T09:35:10.257Z,4.45
2019-05-18T09:37:38.770Z,4.30
2019-05-18T09:40:08.634Z,4.10
2019-05-18T09:42:37.898Z,4.08
2019-05-18T09:45:08.824Z,5.70
2019-05-18T09:47:37.862Z,5.05
2019-05-18T09:50:09.121Z,3.83
2019-05-18T09:52:46.112Z,3.75
2019-05-18T09:55:11.370Z,3.83
2019-05-18T09:57:40.403Z,3.85
2019-05-18T10:00:12.346Z,5.53
2019-05-18T10:02:42.884Z,5.33
2019-05-18T10:05:11.471Z,3.67
2019-05-18T10:07:40.483Z,3.67
2019-05-18T10:10:10.025Z,3.92
2019-05-18T10:12:39.406Z,3.62
2019-05-18T10:15:09.057Z,7.65
2019-05-18T10:17:38.606Z,4.90
2019-05-18T10:20:09.221Z,3.67
2019-05-18T10:22:51.252Z,3.27
2019-05-18T10:25:11.362Z,4.25
2019-05-18T10:27:40.445Z,4.08
2019-05-18T10:30:10.082Z,3.90
2019-05-18T10:32:39.134Z,5.87
2019-05-18T10:35:09.981Z,3.83
2019-05-18T10:37:39.045Z,3.60
2019-05-18T10:40:11.415Z,5.62
2019-05-18T10:42:39.872Z,3.80
2019-05-18T10:45:10.780Z,5.55
2019-05-18T10:47:39.880Z,3.05
2019-05-18T10:50:09.705Z,3.17
2019-05-18T10:52:40.244Z,4.83
2019-05-18T10:55:09.871Z,3.45
2019-05-18T10:57:38.423Z,3.83
2019-05-18T11:00:12.238Z,4.15
2019-05-18T11:02:41.323Z,3.58
2019-05-18T11:05:10.901Z,4.17
2019-05-18T11:07:39.942Z,3.33
2019-05-18T11:10:10.386Z,5.50
2019-05-18T11:12:39.655Z,4.22
2019-05-18T11:15:11.111Z,4.37
2019-05-18T11:17:40.301Z,5.03
2019-05-18T11:20:10.037Z,3.77
2019-05-18T11:23:09.921Z,4.55
2019-05-18T11:25:40.076Z,5.72
2019-05-18T11:28:09.076Z,4.20
2019-05-18T11:30:38.075Z,4.17
2019-05-18T11:33:07.094Z,4.60
2019-05-18T11:35:36.072Z,4.55
2019-05-18T11:38:04.559Z,7.65
2019-05-18T11:40:33.571Z,4.40
2019-05-18T11:43:03.693Z,4.20
2019-05-18T11:45:32.810Z,5.62
2019-05-18T11:48:01.833Z,4.53
2019-05-18T11:50:30.298Z,5.10
2019-05-18T11:52:59.304Z,5.10
2019-05-18T11:55:28.379Z,5.35
2019-05-18T11:57:57.365Z,4.90
2019-05-18T12:00:27.111Z,5.40
2019-05-18T12:02:56.106Z,5.85
2019-05-18T12:05:26.285Z,4.28
2019-05-18T12:07:56.034Z,4.97
2019-05-18T12:10:25.103Z,4.47
2019-05-18T12:12:54.086Z,4.45
2019-05-18T12:15:23.510Z,4.55
2019-05-18T12:17:52.510Z,4.67
2019-05-18T12:20:21.746Z,4.05
2019-05-18T12:22:50.178Z,5.05
2019-05-18T12:25:19.419Z,4.83
2019-05-18T12:27:48.509Z,5.15
2019-05-18T12:30:18.021Z,13.53
2019-05-18T12:32:47.028Z,4.65
2019-05-18T12:35:16.311Z,4.45
2019-05-18T12:37:44.811Z,6.47
2019-05-18T12:40:16.918Z,4.08
2019-05-18T12:42:46.184Z,3.80
2019-05-18T12:45:15.540Z,4.53
2019-05-18T12:47:44.562Z,4.28
2019-05-18T12:50:13.475Z,6.28
2019-05-18T12:52:42.467Z,3.62
2019-05-18T12:55:35.691Z,4.35
2019-05-18T12:58:04.691Z,6.03
2019-05-18T13:00:33.290Z,3.75
2019-05-18T13:03:02.403Z,4.22
2019-05-18T13:05:31.415Z,5.33
2019-05-18T13:08:00.414Z,4.65
2019-05-18T13:10:29.498Z,4.15
2019-05-18T13:12:58.488Z,4.17
2019-05-18T13:15:27.009Z,3.83
2019-05-18T13:17:55.990Z,5.45
2019-05-18T13:20:25.266Z,4.33
2019-05-18T13:22:54.297Z,4.35
2019-05-18T13:25:37.418Z,4.35
2019-05-18T13:28:09.598Z,5.67
2019-05-18T13:30:38.613Z,4.42
2019-05-18T13:33:07.683Z,4.17
2019-05-18T13:35:36.973Z,4.17
2019-05-18T13:38:05.510Z,5.90
2019-05-18T13:40:34.562Z,4.60
2019-05-18T13:43:03.600Z,4.92
2019-05-18T13:45:32.656Z,5.30
2019-05-18T13:48:01.702Z,5.10
2019-05-18T13:50:30.798Z,4.60
2019-05-18T13:52:59.279Z,4.83
2019-05-18T13:55:28.281Z,5.30
2019-05-18T13:57:57.289Z,3.77
2019-05-18T14:00:26.409Z,7.22
2019-05-18T14:02:55.401Z,5.75
2019-05-18T14:05:24.473Z,4.50
2019-05-18T14:07:52.976Z,4.55
2019-05-18T14:10:34.073Z,4.78
2019-05-18T14:13:03.153Z,4.62
2019-05-18T14:15:32.171Z,4.25
2019-05-18T14:18:00.709Z,4.80
2019-05-18T14:20:53.963Z,5.70
2019-05-18T14:23:22.959Z,4.53
2019-05-18T14:25:51.476Z,4.42
2019-05-18T14:28:20.478Z,3.90
2019-05-18T14:30:49.486Z,3.83
2019-05-18T14:33:18.488Z,6.25
2019-05-18T14:35:46.934Z,5.10
2019-05-18T14:38:15.927Z,8.88
2019-05-18T14:40:44.928Z,6.35
2019-05-18T14:43:15.866Z,4.75
2019-05-18T14:45:49.462Z,4.25
2019-05-18T14:48:22.473Z,4.45
2019-05-18T14:50:51.393Z,2.40
2019-05-18T14:53:20.540Z,2.00
2019-05-18T14:55:50.687Z,48.75
2019-05-18T14:58:19.748Z,10.82
2019-05-18T15:00:48.285Z,4.87
2019-05-18T15:03:18.359Z,2.17
2019-05-18T15:06:08.939Z,1.77
2019-05-18T15:08:38.016Z,3.00
2019-05-18T15:11:06.602Z,2.00
2019-05-18T15:13:36.852Z,2.17
2019-05-18T15:26:00.119Z,2.70
2019-05-18T15:28:21.606Z,3.77
2019-05-18T15:30:51.984Z,2.58
2019-05-18T15:33:27.148Z,4.58
2019-05-18T15:35:51.779Z,3.67
2019-05-18T15:38:21.900Z,2.10
2019-05-18T15:40:50.431Z,27.70
2019-05-18T15:43:19.545Z,28.32
2019-05-18T15:45:48.587Z,11.10
2019-05-18T15:48:17.682Z,7.40
2019-05-18T15:50:52.342Z,10.40
2019-05-18T15:53:20.790Z,9.30
2019-05-18T15:56:04.469Z,9.75
2019-05-18T15:58:20.518Z,5.17
2019-05-18T16:00:49.518Z,6.12
2019-05-18T16:03:21.251Z,5.10
2019-05-18T16:05:49.698Z,4.00
2019-05-18T16:08:18.714Z,4.15
2019-05-18T16:10:47.707Z,9.48
2019-05-18T16:13:16.819Z,5.97
2019-05-18T16:15:45.802Z,8.35
2019-05-18T16:18:14.800Z,19.12
2019-05-18T16:20:43.222Z,40.33
2019-05-18T16:23:12.232Z,57.30
2019-05-18T16:25:41.238Z,59.10
2019-05-18T16:28:10.318Z,24.37
2019-05-18T16:30:39.370Z,97.82
2019-05-18T16:33:08.388Z,58.58
2019-05-18T16:35:36.819Z,67.12
2019-05-18T16:38:05.818Z,22.77
2019-05-18T16:40:34.807Z,34.85
2019-05-18T16:43:03.843Z,7.83
2019-05-18T16:45:32.894Z,9.85
2019-05-18T16:48:01.352Z,5.78
2019-05-18T16:50:30.349Z,4.03
2019-05-18T16:52:59.362Z,3.40
2019-05-18T16:55:28.348Z,3.60
2019-05-18T16:57:57.352Z,3.67
2019-05-18T17:00:26.476Z,3.42
2019-05-18T17:02:54.926Z,2.70
2019-05-18T17:05:23.916Z,3.30
2019-05-18T17:07:52.919Z,3.17
2019-05-18T17:10:22.130Z,3.95
2019-05-18T17:12:51.212Z,4.90
2019-05-18T17:15:20.545Z,6.00
2019-05-18T17:17:48.983Z,4.62
2019-05-18T17:20:18.235Z,3.87
2019-05-18T17:22:47.278Z,4.20
2019-05-18T17:25:16.325Z,5.17
2019-05-18T17:27:44.809Z,4.95
2019-05-18T17:30:14.981Z,5.53
2019-05-18T17:32:43.963Z,5.03
2019-05-18T17:35:13.089Z,4.37
2019-05-18T17:37:42.073Z,4.03
2019-05-18T17:40:11.262Z,6.15
2019-05-18T17:42:40.320Z,4.92
2019-05-18T17:45:09.942Z,3.65
2019-05-18T17:47:38.928Z,4.33
2019-05-18T17:50:08.961Z,4.55
2019-05-18T17:52:38.128Z,4.85
2019-05-18T17:55:07.578Z,3.30
2019-05-18T17:57:36.131Z,4.35
2019-05-18T18:00:09.816Z,3.17
2019-05-18T18:02:38.890Z,3.52
2019-05-18T18:05:09.550Z,4.03
2019-05-18T18:07:38.595Z,3.45
2019-05-18T18:10:08.436Z,3.83
2019-05-18T18:12:38.364Z,3.25
2019-05-18T18:15:08.664Z,3.05
2019-05-18T18:17:37.645Z,3.10
2019-05-18T18:20:07.677Z,2.85
2019-05-18T18:22:36.670Z,4.12
2019-05-18T18:25:06.236Z,3.25
2019-05-18T18:27:35.284Z,3.12
2019-05-18T18:30:08.803Z,3.35
2019-05-18T18:32:37.800Z,3.25
2019-05-18T18:35:07.526Z,2.90
2019-05-18T18:37:36.029Z,3.85
2019-05-18T18:40:06.474Z,3.20
2019-05-18T18:42:35.447Z,2.90
2019-05-18T18:45:06.378Z,2.95
2019-05-18T18:47:35.364Z,3.12
2019-05-18T18:50:05.451Z,3.70
2019-05-18T18:52:34.426Z,3.50
2019-05-18T18:55:03.413Z,3.30
2019-05-18T18:57:40.685Z,3.37
2019-05-18T19:00:03.189Z,3.42
2019-05-18T19:02:32.178Z,4.95
2019-05-18T19:05:00.693Z,4.10
2019-05-18T19:07:29.665Z,5.05
2019-05-18T19:09:58.657Z,4.37
2019-05-18T19:12:27.631Z,3.60
2019-05-18T19:14:56.639Z,6.65
2019-05-18T19:17:25.096Z,6.22
2019-05-18T19:19:54.094Z,4.80
2019-05-18T19:22:23.077Z,5.03
2019-05-18T19:24:55.487Z,4.90
2019-05-18T19:27:22.764Z,3.95
2019-05-18T19:29:51.752Z,3.12
2019-05-18T19:32:20.203Z,4.17
2019-05-18T19:34:49.253Z,5.40
2019-05-18T19:37:18.325Z,3.12
2019-05-18T19:39:47.307Z,4.30
2019-05-18T19:42:17.369Z,4.25
2019-05-18T19:44:45.807Z,3.47
2019-05-18T19:47:14.798Z,3.65
2019-05-18T19:49:43.790Z,3.37
2019-05-18T19:52:12.812Z,3.58
2019-05-18T19:54:41.785Z,5.40
2019-05-18T19:57:11.593Z,4.62
2019-05-18T19:59:40.075Z,5.67
2019-05-18T20:02:09.084Z,4.40
2019-05-18T20:04:38.123Z,4.30
2019-05-18T20:07:07.126Z,4.53
2019-05-18T20:09:36.099Z,4.87
2019-05-18T20:12:04.591Z,4.50
2019-05-18T20:14:33.583Z,4.72
2019-05-18T20:17:02.679Z,5.65
2019-05-18T20:19:39.457Z,4.87
2019-05-18T20:22:02.497Z,4.78
2019-05-18T20:24:31.539Z,5.42
2019-05-18T20:26:59.986Z,4.92
2019-05-18T20:29:29.731Z,7.72
2019-05-18T20:31:58.830Z,4.75
2019-05-18T20:34:27.806Z,6.37
2019-05-18T20:36:56.800Z,4.62
2019-05-18T20:39:25.268Z,3.92
2019-05-18T20:41:54.262Z,4.12
2019-05-18T20:44:23.249Z,4.25
2019-05-18T20:46:52.241Z,4.15
2019-05-18T20:49:21.244Z,4.70
2019-05-18T20:51:50.326Z,4.22
2019-05-18T20:54:18.734Z,3.87
2019-05-18T20:56:47.734Z,6.47
2019-05-18T20:59:16.718Z,4.47
2019-05-18T21:01:45.730Z,3.75
2019-05-18T21:04:14.727Z,4.30
2019-05-18T21:06:45.510Z,4.20
2019-05-18T21:09:13.925Z,4.65
2019-05-18T21:11:42.992Z,4.80
2019-05-18T21:14:11.987Z,4.78
2019-05-18T21:16:40.978Z,4.47
2019-05-18T21:19:09.418Z,4.30
2019-05-18T21:21:38.501Z,4.80
2019-05-18T21:24:07.491Z,4.40
2019-05-18T21:26:36.546Z,4.30
2019-05-18T21:29:05.531Z,6.70
2019-05-18T21:31:34.541Z,6.67
2019-05-18T21:34:03.043Z,6.40
2019-05-18T21:36:32.041Z,6.28
2019-05-18T21:39:01.028Z,6.22
2019-05-18T21:41:30.027Z,7.20
2019-05-18T21:43:59.063Z,7.53
2019-05-18T21:46:27.505Z,7.47
2019-05-18T21:48:56.487Z,7.55
2019-05-18T21:51:25.490Z,7.62
2019-05-18T21:53:54.487Z,7.15
2019-05-18T21:56:23.506Z,8.23
2019-05-18T21:58:52.478Z,8.28
2019-05-18T22:01:20.914Z,7.83
2019-05-18T22:03:49.895Z,7.80
2019-05-18T22:06:18.891Z,8.38
2019-05-18T22:08:47.956Z,8.23
2019-05-18T22:11:16.937Z,8.40
2019-05-18T22:13:45.396Z,8.40
2019-05-18T22:16:14.394Z,8.30
2019-05-18T22:18:43.407Z,9.05
2019-05-18T22:21:12.427Z,8.50
2019-05-18T22:23:41.515Z,8.73
2019-05-18T22:26:10.575Z,7.50
2019-05-18T22:28:39.021Z,8.13
2019-05-18T22:31:08.014Z,8.88
2019-05-18T22:33:37.089Z,10.65
2019-05-18T22:36:06.061Z,9.15
2019-05-18T22:38:35.058Z,10.08
2019-05-18T22:41:04.059Z,11.25
2019-05-18T22:43:32.510Z,10.85
2019-05-18T22:46:01.479Z,10.60
2019-05-18T22:48:40.856Z,11.30
2019-05-18T22:51:01.203Z,11.45
2019-05-18T22:53:30.224Z,12.43
2019-05-18T22:55:58.658Z,10.37
2019-05-18T22:58:27.664Z,9.53
2019-05-18T23:00:56.638Z,12.15
2019-05-18T23:03:25.642Z,9.58
2019-05-18T23:05:54.630Z,10.38
2019-05-18T23:08:23.077Z,9.75
2019-05-18T23:10:52.066Z,9.05
2019-05-18T23:13:21.063Z,8.80
2019-05-18T23:15:50.042Z,9.58
2019-05-18T23:18:19.138Z,9.35
2019-05-18T23:20:48.115Z,8.25
2019-05-18T23:23:16.557Z,10.58
2019-05-18T23:25:45.547Z,9.13
2019-05-18T23:28:14.617Z,9.10
2019-05-18T23:30:43.597Z,8.38
2019-05-18T23:33:12.602Z,8.70
2019-05-18T23:35:41.037Z,9.23
2019-05-18T23:38:10.047Z,10.08
2019-05-18T23:40:39.046Z,9.58
2019-05-18T23:43:08.042Z,9.03
2019-05-18T23:45:37.164Z,8.93
2019-05-18T23:48:06.168Z,9.77
2019-05-18T23:50:34.681Z,9.33
2019-05-18T23:53:03.733Z,9.03
2019-05-18T23:55:33.077Z,9.77
2019-05-18T23:58:05.801Z,9.03
